sensor_id;sensor_type;location;lat;lon;timestamp;P1;durP1;ratioP1;P2;durP2;ratioP2
77051;SDS011;65980;44.898;8.602;2023-07-16T00:01:37;9.10;;;3.70;;
77051;SDS011;65980;44.898;8.602;2023-07-16T00:04:41;8.15;;;3.72;;
77051;SDS011;65980;44.898;8.602;2023-07-16T00:07:46;9.23;;;3.92;;
77051;SDS011;65980;44.898;8.602;2023-07-16T00:10:51;10.02;;;3.88;;
77051;SDS011;65980;44.898;8.602;2023-07-16T00:13:55;5.15;;;3.13;;
77051;SDS011;65980;44.898;8.602;2023-07-16T00:16:59;9.90;;;3.30;;
77051;SDS011;65980;44.898;8.602;2023-07-16T00:20:04;11.52;;;3.50;;
77051;SDS011;65980;44.898;8.602;2023-07-16T00:23:09;6.43;;;3.20;;
77051;SDS011;65980;44.898;8.602;2023-07-16T00:26:13;9.57;;;3.25;;
77051;SDS011;65980;44.898;8.602;2023-07-16T00:29:21;5.97;;;3.10;;
77051;SDS011;65980;44.898;8.602;2023-07-16T00:32:25;5.38;;;3.30;;
77051;SDS011;65980;44.898;8.602;2023-07-16T00:35:29;7.97;;;3.13;;
77051;SDS011;65980;44.898;8.602;2023-07-16T00:38:34;7.03;;;3.30;;
77051;SDS011;65980;44.898;8.602;2023-07-16T00:41:39;7.93;;;3.22;;
77051;SDS011;65980;44.898;8.602;2023-07-16T00:44:43;7.10;;;3.42;;
77051;SDS011;65980;44.898;8.602;2023-07-16T00:47:47;7.75;;;3.10;;
77051;SDS011;65980;44.898;8.602;2023-07-16T00:50:52;7.93;;;3.20;;
77051;SDS011;65980;44.898;8.602;2023-07-16T00:53:57;10.15;;;2.90;;
77051;SDS011;65980;44.898;8.602;2023-07-16T00:57:01;6.30;;;3.10;;
77051;SDS011;65980;44.898;8.602;2023-07-16T01:00:05;9.02;;;2.97;;
77051;SDS011;65980;44.898;8.602;2023-07-16T01:03:12;7.97;;;3.60;;
77051;SDS011;65980;44.898;8.602;2023-07-16T01:06:38;6.57;;;3.10;;
77051;SDS011;65980;44.898;8.602;2023-07-16T01:09:44;8.77;;;3.10;;
77051;SDS011;65980;44.898;8.602;2023-07-16T01:12:50;8.60;;;3.30;;
77051;SDS011;65980;44.898;8.602;2023-07-16T01:15:56;7.68;;;3.03;;
77051;SDS011;65980;44.898;8.602;2023-07-16T01:19:01;5.72;;;3.15;;
77051;SDS011;65980;44.898;8.602;2023-07-16T01:25:22;8.80;;;3.20;;
77051;SDS011;65980;44.898;8.602;2023-07-16T01:32:10;12.18;;;3.33;;
77051;SDS011;65980;44.898;8.602;2023-07-16T01:35:15;8.93;;;3.30;;
77051;SDS011;65980;44.898;8.602;2023-07-16T01:38:19;5.50;;;2.88;;
77051;SDS011;65980;44.898;8.602;2023-07-16T01:41:24;6.35;;;3.17;;
77051;SDS011;65980;44.898;8.602;2023-07-16T01:44:29;7.10;;;3.28;;
77051;SDS011;65980;44.898;8.602;2023-07-16T01:47:45;8.70;;;3.13;;
77051;SDS011;65980;44.898;8.602;2023-07-16T01:50:53;7.35;;;3.10;;
77051;SDS011;65980;44.898;8.602;2023-07-16T01:53:58;7.93;;;3.58;;
77051;SDS011;65980;44.898;8.602;2023-07-16T01:57:03;6.55;;;2.92;;
77051;SDS011;65980;44.898;8.602;2023-07-16T02:00:07;5.35;;;3.10;;
77051;SDS011;65980;44.898;8.602;2023-07-16T02:03:23;6.22;;;3.42;;
77051;SDS011;65980;44.898;8.602;2023-07-16T02:06:27;6.45;;;3.95;;
77051;SDS011;65980;44.898;8.602;2023-07-16T02:09:33;6.55;;;3.72;;
77051;SDS011;65980;44.898;8.602;2023-07-16T02:12:38;9.48;;;3.42;;
77051;SDS011;65980;44.898;8.602;2023-07-16T02:15:42;6.30;;;3.33;;
77051;SDS011;65980;44.898;8.602;2023-07-16T02:18:47;7.38;;;3.58;;
77051;SDS011;65980;44.898;8.602;2023-07-16T02:21:52;8.48;;;3.55;;
77051;SDS011;65980;44.898;8.602;2023-07-16T02:24:59;8.07;;;3.42;;
77051;SDS011;65980;44.898;8.602;2023-07-16T02:28:03;9.50;;;3.85;;
77051;SDS011;65980;44.898;8.602;2023-07-16T02:31:08;8.15;;;3.75;;
77051;SDS011;65980;44.898;8.602;2023-07-16T02:34:12;7.35;;;3.50;;
77051;SDS011;65980;44.898;8.602;2023-07-16T02:37:16;7.00;;;3.72;;
77051;SDS011;65980;44.898;8.602;2023-07-16T02:40:21;7.20;;;3.53;;
77051;SDS011;65980;44.898;8.602;2023-07-16T02:43:25;6.20;;;3.28;;
77051;SDS011;65980;44.898;8.602;2023-07-16T02:46:32;8.20;;;3.80;;
77051;SDS011;65980;44.898;8.602;2023-07-16T02:49:36;9.77;;;3.33;;
77051;SDS011;65980;44.898;8.602;2023-07-16T02:52:42;7.82;;;3.70;;
77051;SDS011;65980;44.898;8.602;2023-07-16T02:55:46;8.45;;;3.90;;
77051;SDS011;65980;44.898;8.602;2023-07-16T02:58:51;9.82;;;3.88;;
77051;SDS011;65980;44.898;8.602;2023-07-16T03:01:55;7.03;;;4.38;;
77051;SDS011;65980;44.898;8.602;2023-07-16T03:04:59;8.90;;;3.60;;
77051;SDS011;65980;44.898;8.602;2023-07-16T03:08:03;8.15;;;4.13;;
77051;SDS011;65980;44.898;8.602;2023-07-16T03:11:08;7.65;;;3.53;;
77051;SDS011;65980;44.898;8.602;2023-07-16T03:14:12;7.90;;;3.72;;
77051;SDS011;65980;44.898;8.602;2023-07-16T03:17:17;6.55;;;3.70;;
77051;SDS011;65980;44.898;8.602;2023-07-16T03:20:21;6.45;;;3.67;;
77051;SDS011;65980;44.898;8.602;2023-07-16T03:23:26;6.43;;;3.25;;
77051;SDS011;65980;44.898;8.602;2023-07-16T03:26:30;10.00;;;3.83;;
77051;SDS011;65980;44.898;8.602;2023-07-16T03:29:35;7.30;;;3.53;;
77051;SDS011;65980;44.898;8.602;2023-07-16T03:32:40;7.38;;;3.75;;
77051;SDS011;65980;44.898;8.602;2023-07-16T03:35:46;7.57;;;3.55;;
77051;SDS011;65980;44.898;8.602;2023-07-16T03:38:51;10.18;;;3.70;;
77051;SDS011;65980;44.898;8.602;2023-07-16T03:44:59;12.13;;;4.25;;
77051;SDS011;65980;44.898;8.602;2023-07-16T03:48:03;10.27;;;3.80;;
77051;SDS011;65980;44.898;8.602;2023-07-16T03:51:08;5.25;;;3.55;;
77051;SDS011;65980;44.898;8.602;2023-07-16T03:54:12;8.02;;;3.45;;
77051;SDS011;65980;44.898;8.602;2023-07-16T03:57:17;7.80;;;3.63;;
77051;SDS011;65980;44.898;8.602;2023-07-16T04:00:21;8.98;;;3.78;;
77051;SDS011;65980;44.898;8.602;2023-07-16T04:03:27;9.98;;;4.18;;
77051;SDS011;65980;44.898;8.602;2023-07-16T04:06:31;7.78;;;5.00;;
77051;SDS011;65980;44.898;8.602;2023-07-16T04:09:39;8.45;;;3.40;;
77051;SDS011;65980;44.898;8.602;2023-07-16T04:12:43;8.02;;;3.90;;
77051;SDS011;65980;44.898;8.602;2023-07-16T04:15:47;8.30;;;4.00;;
77051;SDS011;65980;44.898;8.602;2023-07-16T04:18:51;7.00;;;3.63;;
77051;SDS011;65980;44.898;8.602;2023-07-16T04:21:56;11.15;;;4.43;;
77051;SDS011;65980;44.898;8.602;2023-07-16T04:25:00;10.50;;;3.75;;
77051;SDS011;65980;44.898;8.602;2023-07-16T04:28:04;8.48;;;3.95;;
77051;SDS011;65980;44.898;8.602;2023-07-16T04:31:09;5.00;;;3.85;;
77051;SDS011;65980;44.898;8.602;2023-07-16T04:34:13;6.38;;;3.90;;
77051;SDS011;65980;44.898;8.602;2023-07-16T04:37:18;8.10;;;4.03;;
77051;SDS011;65980;44.898;8.602;2023-07-16T04:40:22;10.68;;;4.15;;
77051;SDS011;65980;44.898;8.602;2023-07-16T04:43:26;10.38;;;4.13;;
77051;SDS011;65980;44.898;8.602;2023-07-16T04:46:30;7.28;;;3.88;;
77051;SDS011;65980;44.898;8.602;2023-07-16T04:49:34;8.80;;;3.95;;
77051;SDS011;65980;44.898;8.602;2023-07-16T04:52:40;7.03;;;4.22;;
77051;SDS011;65980;44.898;8.602;2023-07-16T04:55:44;6.45;;;3.90;;
77051;SDS011;65980;44.898;8.602;2023-07-16T04:58:49;8.40;;;4.20;;
77051;SDS011;65980;44.898;8.602;2023-07-16T05:01:53;9.05;;;3.90;;
77051;SDS011;65980;44.898;8.602;2023-07-16T05:04:57;7.60;;;4.18;;
77051;SDS011;65980;44.898;8.602;2023-07-16T05:08:01;11.32;;;3.75;;
77051;SDS011;65980;44.898;8.602;2023-07-16T05:11:05;9.70;;;3.90;;
77051;SDS011;65980;44.898;8.602;2023-07-16T05:14:09;10.13;;;4.32;;
77051;SDS011;65980;44.898;8.602;2023-07-16T05:17:13;7.90;;;4.20;;
77051;SDS011;65980;44.898;8.602;2023-07-16T05:20:18;7.97;;;3.90;;
77051;SDS011;65980;44.898;8.602;2023-07-16T05:23:22;9.18;;;4.20;;
77051;SDS011;65980;44.898;8.602;2023-07-16T05:26:26;8.65;;;3.83;;
77051;SDS011;65980;44.898;8.602;2023-07-16T05:29:30;8.65;;;4.18;;
77051;SDS011;65980;44.898;8.602;2023-07-16T05:32:34;8.93;;;4.40;;
77051;SDS011;65980;44.898;8.602;2023-07-16T05:35:39;9.82;;;4.53;;
77051;SDS011;65980;44.898;8.602;2023-07-16T05:38:43;13.10;;;4.18;;
77051;SDS011;65980;44.898;8.602;2023-07-16T05:41:47;9.60;;;3.78;;
77051;SDS011;65980;44.898;8.602;2023-07-16T05:44:52;9.18;;;3.85;;
77051;SDS011;65980;44.898;8.602;2023-07-16T05:47:56;11.50;;;4.07;;
77051;SDS011;65980;44.898;8.602;2023-07-16T05:51:00;10.63;;;4.00;;
77051;SDS011;65980;44.898;8.602;2023-07-16T05:54:04;7.60;;;4.40;;
77051;SDS011;65980;44.898;8.602;2023-07-16T05:57:09;9.13;;;4.03;;
77051;SDS011;65980;44.898;8.602;2023-07-16T06:00:13;6.90;;;4.13;;
77051;SDS011;65980;44.898;8.602;2023-07-16T06:03:20;7.72;;;3.95;;
77051;SDS011;65980;44.898;8.602;2023-07-16T06:06:27;8.07;;;4.00;;
77051;SDS011;65980;44.898;8.602;2023-07-16T06:09:32;6.22;;;4.00;;
77051;SDS011;65980;44.898;8.602;2023-07-16T06:12:37;8.32;;;3.90;;
77051;SDS011;65980;44.898;8.602;2023-07-16T06:15:41;9.13;;;3.63;;
77051;SDS011;65980;44.898;8.602;2023-07-16T06:18:45;10.40;;;4.15;;
77051;SDS011;65980;44.898;8.602;2023-07-16T06:21:49;9.70;;;3.45;;
77051;SDS011;65980;44.898;8.602;2023-07-16T06:24:53;6.80;;;3.90;;
77051;SDS011;65980;44.898;8.602;2023-07-16T06:27:57;10.80;;;4.25;;
77051;SDS011;65980;44.898;8.602;2023-07-16T06:31:01;7.32;;;4.07;;
77051;SDS011;65980;44.898;8.602;2023-07-16T06:34:05;9.55;;;3.90;;
77051;SDS011;65980;44.898;8.602;2023-07-16T06:37:09;11.07;;;3.80;;
77051;SDS011;65980;44.898;8.602;2023-07-16T06:40:13;8.20;;;3.42;;
77051;SDS011;65980;44.898;8.602;2023-07-16T06:43:17;9.88;;;3.72;;
77051;SDS011;65980;44.898;8.602;2023-07-16T06:46:22;13.07;;;3.90;;
77051;SDS011;65980;44.898;8.602;2023-07-16T06:49:27;8.38;;;4.60;;
77051;SDS011;65980;44.898;8.602;2023-07-16T06:52:33;18.20;;;4.53;;
77051;SDS011;65980;44.898;8.602;2023-07-16T06:55:37;8.68;;;4.13;;
77051;SDS011;65980;44.898;8.602;2023-07-16T06:58:41;11.85;;;4.65;;
77051;SDS011;65980;44.898;8.602;2023-07-16T07:01:45;8.75;;;4.00;;
77051;SDS011;65980;44.898;8.602;2023-07-16T07:04:50;12.95;;;4.50;;
77051;SDS011;65980;44.898;8.602;2023-07-16T07:07:53;12.88;;;4.60;;
77051;SDS011;65980;44.898;8.602;2023-07-16T07:10:58;11.30;;;4.47;;
77051;SDS011;65980;44.898;8.602;2023-07-16T07:14:02;12.90;;;4.30;;
77051;SDS011;65980;44.898;8.602;2023-07-16T07:17:06;8.30;;;4.45;;
77051;SDS011;65980;44.898;8.602;2023-07-16T07:20:10;10.63;;;4.70;;
77051;SDS011;65980;44.898;8.602;2023-07-16T07:23:15;11.23;;;4.57;;
77051;SDS011;65980;44.898;8.602;2023-07-16T07:26:20;10.82;;;4.68;;
77051;SDS011;65980;44.898;8.602;2023-07-16T07:29:24;14.98;;;5.05;;
77051;SDS011;65980;44.898;8.602;2023-07-16T07:32:28;10.55;;;4.28;;
77051;SDS011;65980;44.898;8.602;2023-07-16T07:35:33;8.23;;;4.55;;
77051;SDS011;65980;44.898;8.602;2023-07-16T07:38:37;9.52;;;4.93;;
77051;SDS011;65980;44.898;8.602;2023-07-16T07:41:41;10.77;;;4.93;;
77051;SDS011;65980;44.898;8.602;2023-07-16T07:44:45;12.98;;;5.03;;
77051;SDS011;65980;44.898;8.602;2023-07-16T07:47:49;14.93;;;4.88;;
77051;SDS011;65980;44.898;8.602;2023-07-16T07:50:53;14.88;;;4.93;;
77051;SDS011;65980;44.898;8.602;2023-07-16T07:53:57;10.10;;;4.78;;
77051;SDS011;65980;44.898;8.602;2023-07-16T07:57:02;12.07;;;5.10;;
77051;SDS011;65980;44.898;8.602;2023-07-16T08:00:08;10.45;;;4.85;;
77051;SDS011;65980;44.898;8.602;2023-07-16T08:03:16;12.07;;;4.68;;
77051;SDS011;65980;44.898;8.602;2023-07-16T08:06:20;11.95;;;5.03;;
77051;SDS011;65980;44.898;8.602;2023-07-16T08:09:26;9.68;;;4.93;;
77051;SDS011;65980;44.898;8.602;2023-07-16T08:12:30;8.70;;;4.50;;
77051;SDS011;65980;44.898;8.602;2023-07-16T08:15:34;15.63;;;4.88;;
77051;SDS011;65980;44.898;8.602;2023-07-16T08:18:39;11.00;;;4.60;;
77051;SDS011;65980;44.898;8.602;2023-07-16T08:21:44;10.55;;;4.40;;
77051;SDS011;65980;44.898;8.602;2023-07-16T08:24:48;12.05;;;4.32;;
77051;SDS011;65980;44.898;8.602;2023-07-16T08:27:52;9.20;;;4.30;;
77051;SDS011;65980;44.898;8.602;2023-07-16T08:30:56;9.48;;;4.78;;
77051;SDS011;65980;44.898;8.602;2023-07-16T08:34:00;10.00;;;4.28;;
77051;SDS011;65980;44.898;8.602;2023-07-16T08:37:04;14.75;;;4.70;;
77051;SDS011;65980;44.898;8.602;2023-07-16T08:40:09;9.00;;;4.53;;
77051;SDS011;65980;44.898;8.602;2023-07-16T08:43:14;12.27;;;4.50;;
77051;SDS011;65980;44.898;8.602;2023-07-16T08:46:20;9.73;;;4.22;;
77051;SDS011;65980;44.898;8.602;2023-07-16T08:49:24;11.88;;;4.03;;
77051;SDS011;65980;44.898;8.602;2023-07-16T08:52:29;10.10;;;4.32;;
77051;SDS011;65980;44.898;8.602;2023-07-16T08:55:34;9.55;;;4.10;;
77051;SDS011;65980;44.898;8.602;2023-07-16T08:58:42;15.98;;;4.57;;
77051;SDS011;65980;44.898;8.602;2023-07-16T09:01:48;13.52;;;4.65;;
77051;SDS011;65980;44.898;8.602;2023-07-16T09:04:55;13.70;;;4.30;;
77051;SDS011;65980;44.898;8.602;2023-07-16T09:07:58;11.88;;;4.13;;
77051;SDS011;65980;44.898;8.602;2023-07-16T09:11:03;8.93;;;3.95;;
77051;SDS011;65980;44.898;8.602;2023-07-16T09:14:07;12.95;;;4.15;;
77051;SDS011;65980;44.898;8.602;2023-07-16T09:17:11;12.18;;;4.03;;
77051;SDS011;65980;44.898;8.602;2023-07-16T09:20:15;12.02;;;4.00;;
77051;SDS011;65980;44.898;8.602;2023-07-16T09:23:20;11.65;;;4.25;;
77051;SDS011;65980;44.898;8.602;2023-07-16T09:26:24;16.38;;;4.20;;
77051;SDS011;65980;44.898;8.602;2023-07-16T09:29:28;9.77;;;4.35;;
77051;SDS011;65980;44.898;8.602;2023-07-16T09:32:32;10.00;;;4.18;;
77051;SDS011;65980;44.898;8.602;2023-07-16T09:35:41;11.30;;;4.38;;
77051;SDS011;65980;44.898;8.602;2023-07-16T09:38:46;11.13;;;5.03;;
77051;SDS011;65980;44.898;8.602;2023-07-16T09:41:52;14.32;;;4.60;;
77051;SDS011;65980;44.898;8.602;2023-07-16T09:44:58;13.00;;;4.25;;
77051;SDS011;65980;44.898;8.602;2023-07-16T09:48:04;9.27;;;4.00;;
77051;SDS011;65980;44.898;8.602;2023-07-16T09:51:09;12.48;;;4.05;;
77051;SDS011;65980;44.898;8.602;2023-07-16T09:54:16;10.60;;;4.28;;
77051;SDS011;65980;44.898;8.602;2023-07-16T09:57:20;10.43;;;4.30;;
77051;SDS011;65980;44.898;8.602;2023-07-16T10:00:26;13.85;;;3.95;;
77051;SDS011;65980;44.898;8.602;2023-07-16T10:03:32;10.57;;;4.20;;
77051;SDS011;65980;44.898;8.602;2023-07-16T10:06:47;9.82;;;4.15;;
77051;SDS011;65980;44.898;8.602;2023-07-16T10:09:53;14.30;;;4.20;;
77051;SDS011;65980;44.898;8.602;2023-07-16T10:13:03;11.20;;;3.92;;
77051;SDS011;65980;44.898;8.602;2023-07-16T10:16:07;8.48;;;3.78;;
77051;SDS011;65980;44.898;8.602;2023-07-16T10:19:14;7.90;;;3.75;;
77051;SDS011;65980;44.898;8.602;2023-07-16T10:22:33;11.48;;;3.83;;
77051;SDS011;65980;44.898;8.602;2023-07-16T10:25:58;13.48;;;4.20;;
77051;SDS011;65980;44.898;8.602;2023-07-16T10:29:06;10.07;;;3.92;;
77051;SDS011;65980;44.898;8.602;2023-07-16T10:32:11;9.63;;;3.13;;
77051;SDS011;65980;44.898;8.602;2023-07-16T10:35:15;10.07;;;4.07;;
77051;SDS011;65980;44.898;8.602;2023-07-16T10:38:19;12.25;;;3.55;;
77051;SDS011;65980;44.898;8.602;2023-07-16T10:41:23;10.90;;;3.80;;
77051;SDS011;65980;44.898;8.602;2023-07-16T10:44:28;13.98;;;4.18;;
77051;SDS011;65980;44.898;8.602;2023-07-16T10:47:32;12.98;;;3.88;;
77051;SDS011;65980;44.898;8.602;2023-07-16T10:50:38;10.20;;;3.88;;
77051;SDS011;65980;44.898;8.602;2023-07-16T10:53:43;11.35;;;3.70;;
77051;SDS011;65980;44.898;8.602;2023-07-16T10:56:48;10.65;;;3.75;;
77051;SDS011;65980;44.898;8.602;2023-07-16T10:59:52;8.77;;;3.67;;
77051;SDS011;65980;44.898;8.602;2023-07-16T11:02:57;9.15;;;3.55;;
77051;SDS011;65980;44.898;8.602;2023-07-16T11:06:10;11.40;;;3.80;;
77051;SDS011;65980;44.898;8.602;2023-07-16T11:09:19;10.73;;;3.80;;
77051;SDS011;65980;44.898;8.602;2023-07-16T11:12:23;12.82;;;3.60;;
77051;SDS011;65980;44.898;8.602;2023-07-16T11:15:39;17.00;;;3.90;;
77051;SDS011;65980;44.898;8.602;2023-07-16T11:18:44;9.02;;;4.00;;
77051;SDS011;65980;44.898;8.602;2023-07-16T11:21:49;14.90;;;3.90;;
77051;SDS011;65980;44.898;8.602;2023-07-16T11:24:53;9.75;;;3.25;;
77051;SDS011;65980;44.898;8.602;2023-07-16T11:28:00;9.50;;;3.75;;
77051;SDS011;65980;44.898;8.602;2023-07-16T11:31:15;10.45;;;3.50;;
77051;SDS011;65980;44.898;8.602;2023-07-16T11:34:20;9.98;;;3.67;;
77051;SDS011;65980;44.898;8.602;2023-07-16T11:37:27;9.05;;;3.35;;
77051;SDS011;65980;44.898;8.602;2023-07-16T11:40:33;10.70;;;3.55;;
77051;SDS011;65980;44.898;8.602;2023-07-16T11:43:39;10.90;;;3.58;;
77051;SDS011;65980;44.898;8.602;2023-07-16T11:46:46;11.38;;;3.88;;
77051;SDS011;65980;44.898;8.602;2023-07-16T11:49:51;10.35;;;3.60;;
77051;SDS011;65980;44.898;8.602;2023-07-16T11:52:58;11.60;;;4.15;;
77051;SDS011;65980;44.898;8.602;2023-07-16T11:56:05;8.40;;;3.67;;
77051;SDS011;65980;44.898;8.602;2023-07-16T11:59:09;13.05;;;3.85;;
77051;SDS011;65980;44.898;8.602;2023-07-16T12:02:13;16.08;;;4.20;;
77051;SDS011;65980;44.898;8.602;2023-07-16T12:05:22;11.38;;;3.70;;
77051;SDS011;65980;44.898;8.602;2023-07-16T12:08:31;13.68;;;3.58;;
77051;SDS011;65980;44.898;8.602;2023-07-16T12:11:37;10.80;;;3.35;;
77051;SDS011;65980;44.898;8.602;2023-07-16T12:14:41;8.38;;;3.95;;
77051;SDS011;65980;44.898;8.602;2023-07-16T12:17:46;15.35;;;3.63;;
77051;SDS011;65980;44.898;8.602;2023-07-16T12:20:49;7.68;;;3.83;;
77051;SDS011;65980;44.898;8.602;2023-07-16T12:23:54;12.23;;;3.78;;
77051;SDS011;65980;44.898;8.602;2023-07-16T12:26:59;11.18;;;3.75;;
77051;SDS011;65980;44.898;8.602;2023-07-16T12:30:04;11.57;;;3.70;;
77051;SDS011;65980;44.898;8.602;2023-07-16T12:33:08;10.43;;;3.63;;
77051;SDS011;65980;44.898;8.602;2023-07-16T12:36:13;8.95;;;3.50;;
77051;SDS011;65980;44.898;8.602;2023-07-16T12:39:17;8.05;;;3.63;;
77051;SDS011;65980;44.898;8.602;2023-07-16T12:42:23;10.43;;;3.30;;
77051;SDS011;65980;44.898;8.602;2023-07-16T12:45:26;9.93;;;3.67;;
77051;SDS011;65980;44.898;8.602;2023-07-16T12:48:31;11.27;;;3.50;;
77051;SDS011;65980;44.898;8.602;2023-07-16T12:51:36;15.50;;;3.80;;
77051;SDS011;65980;44.898;8.602;2023-07-16T12:54:40;10.63;;;3.35;;
77051;SDS011;65980;44.898;8.602;2023-07-16T12:57:44;13.77;;;3.83;;
77051;SDS011;65980;44.898;8.602;2023-07-16T13:00:47;12.35;;;3.60;;
77051;SDS011;65980;44.898;8.602;2023-07-16T13:03:52;13.20;;;3.78;;
77051;SDS011;65980;44.898;8.602;2023-07-16T13:06:55;13.30;;;3.75;;
77051;SDS011;65980;44.898;8.602;2023-07-16T13:10:00;10.80;;;3.90;;
77051;SDS011;65980;44.898;8.602;2023-07-16T13:13:04;7.15;;;3.10;;
77051;SDS011;65980;44.898;8.602;2023-07-16T13:16:09;14.60;;;4.35;;
77051;SDS011;65980;44.898;8.602;2023-07-16T13:19:14;18.42;;;4.25;;
77051;SDS011;65980;44.898;8.602;2023-07-16T13:22:18;15.55;;;3.95;;
77051;SDS011;65980;44.898;8.602;2023-07-16T13:25:24;13.32;;;3.88;;
77051;SDS011;65980;44.898;8.602;2023-07-16T13:28:28;16.58;;;3.60;;
77051;SDS011;65980;44.898;8.602;2023-07-16T13:31:32;13.30;;;3.95;;
77051;SDS011;65980;44.898;8.602;2023-07-16T13:34:35;13.25;;;3.58;;
77051;SDS011;65980;44.898;8.602;2023-07-16T13:37:40;10.75;;;3.50;;
77051;SDS011;65980;44.898;8.602;2023-07-16T13:40:45;13.00;;;4.20;;
77051;SDS011;65980;44.898;8.602;2023-07-16T13:43:49;8.80;;;3.42;;
77051;SDS011;65980;44.898;8.602;2023-07-16T13:46:53;12.77;;;3.33;;
77051;SDS011;65980;44.898;8.602;2023-07-16T13:49:57;11.73;;;3.65;;
77051;SDS011;65980;44.898;8.602;2023-07-16T13:53:02;11.15;;;3.47;;
77051;SDS011;65980;44.898;8.602;2023-07-16T13:56:08;9.57;;;3.53;;
77051;SDS011;65980;44.898;8.602;2023-07-16T13:59:12;8.88;;;3.30;;
77051;SDS011;65980;44.898;8.602;2023-07-16T14:02:18;9.95;;;3.10;;
77051;SDS011;65980;44.898;8.602;2023-07-16T14:05:23;11.82;;;3.40;;
77051;SDS011;65980;44.898;8.602;2023-07-16T14:08:27;18.30;;;3.22;;
77051;SDS011;65980;44.898;8.602;2023-07-16T14:11:31;11.32;;;3.72;;
77051;SDS011;65980;44.898;8.602;2023-07-16T14:14:36;10.82;;;3.20;;
77051;SDS011;65980;44.898;8.602;2023-07-16T14:17:40;9.65;;;2.97;;
77051;SDS011;65980;44.898;8.602;2023-07-16T14:20:44;11.85;;;3.47;;
77051;SDS011;65980;44.898;8.602;2023-07-16T14:23:48;13.68;;;3.42;;
77051;SDS011;65980;44.898;8.602;2023-07-16T14:26:53;8.27;;;3.20;;
77051;SDS011;65980;44.898;8.602;2023-07-16T14:29:57;14.93;;;3.33;;
77051;SDS011;65980;44.898;8.602;2023-07-16T14:33:01;10.63;;;3.50;;
77051;SDS011;65980;44.898;8.602;2023-07-16T14:36:08;16.02;;;3.35;;
77051;SDS011;65980;44.898;8.602;2023-07-16T14:39:12;10.85;;;3.17;;
77051;SDS011;65980;44.898;8.602;2023-07-16T14:42:15;10.02;;;3.60;;
77051;SDS011;65980;44.898;8.602;2023-07-16T14:45:21;12.75;;;3.42;;
77051;SDS011;65980;44.898;8.602;2023-07-16T14:48:26;12.00;;;3.47;;
77051;SDS011;65980;44.898;8.602;2023-07-16T14:51:31;12.82;;;3.95;;
77051;SDS011;65980;44.898;8.602;2023-07-16T14:54:36;11.55;;;3.30;;
77051;SDS011;65980;44.898;8.602;2023-07-16T14:57:42;11.25;;;3.13;;
77051;SDS011;65980;44.898;8.602;2023-07-16T15:00:46;10.15;;;3.20;;
77051;SDS011;65980;44.898;8.602;2023-07-16T15:03:52;12.48;;;3.10;;
77051;SDS011;65980;44.898;8.602;2023-07-16T15:06:57;13.57;;;3.55;;
77051;SDS011;65980;44.898;8.602;2023-07-16T15:10:02;11.68;;;2.88;;
77051;SDS011;65980;44.898;8.602;2023-07-16T15:13:08;8.25;;;2.83;;
77051;SDS011;65980;44.898;8.602;2023-07-16T15:16:12;9.20;;;3.00;;
77051;SDS011;65980;44.898;8.602;2023-07-16T15:19:17;9.18;;;3.30;;
77051;SDS011;65980;44.898;8.602;2023-07-16T15:22:23;11.85;;;3.00;;
77051;SDS011;65980;44.898;8.602;2023-07-16T15:25:27;13.20;;;2.85;;
77051;SDS011;65980;44.898;8.602;2023-07-16T15:28:32;9.52;;;3.00;;
77051;SDS011;65980;44.898;8.602;2023-07-16T15:31:39;7.60;;;2.70;;
77051;SDS011;65980;44.898;8.602;2023-07-16T15:34:42;10.52;;;2.95;;
77051;SDS011;65980;44.898;8.602;2023-07-16T15:37:46;8.85;;;2.92;;
77051;SDS011;65980;44.898;8.602;2023-07-16T15:40:51;9.95;;;2.70;;
77051;SDS011;65980;44.898;8.602;2023-07-16T15:43:56;10.57;;;2.63;;
77051;SDS011;65980;44.898;8.602;2023-07-16T15:47:02;9.68;;;2.95;;
77051;SDS011;65980;44.898;8.602;2023-07-16T15:50:07;10.35;;;2.90;;
77051;SDS011;65980;44.898;8.602;2023-07-16T15:53:12;10.32;;;3.05;;
77051;SDS011;65980;44.898;8.602;2023-07-16T15:56:16;13.90;;;3.08;;
77051;SDS011;65980;44.898;8.602;2023-07-16T15:59:20;12.32;;;3.15;;
77051;SDS011;65980;44.898;8.602;2023-07-16T16:02:25;10.80;;;3.40;;
77051;SDS011;65980;44.898;8.602;2023-07-16T16:05:29;8.30;;;3.17;;
77051;SDS011;65980;44.898;8.602;2023-07-16T16:08:35;13.13;;;3.40;;
77051;SDS011;65980;44.898;8.602;2023-07-16T16:11:40;11.68;;;3.17;;
77051;SDS011;65980;44.898;8.602;2023-07-16T16:14:44;11.85;;;3.50;;
77051;SDS011;65980;44.898;8.602;2023-07-16T16:17:48;6.38;;;2.83;;
77051;SDS011;65980;44.898;8.602;2023-07-16T16:20:53;9.45;;;3.10;;
77051;SDS011;65980;44.898;8.602;2023-07-16T16:23:58;17.00;;;3.20;;
77051;SDS011;65980;44.898;8.602;2023-07-16T16:27:08;9.32;;;3.03;;
77051;SDS011;65980;44.898;8.602;2023-07-16T16:30:12;9.27;;;3.38;;
77051;SDS011;65980;44.898;8.602;2023-07-16T16:33:17;8.75;;;2.97;;
77051;SDS011;65980;44.898;8.602;2023-07-16T16:36:21;7.32;;;3.00;;
77051;SDS011;65980;44.898;8.602;2023-07-16T16:39:25;8.05;;;2.92;;
77051;SDS011;65980;44.898;8.602;2023-07-16T16:42:30;9.48;;;3.20;;
77051;SDS011;65980;44.898;8.602;2023-07-16T16:45:35;13.68;;;2.95;;
77051;SDS011;65980;44.898;8.602;2023-07-16T16:48:45;8.80;;;2.90;;
77051;SDS011;65980;44.898;8.602;2023-07-16T16:51:50;5.10;;;2.67;;
77051;SDS011;65980;44.898;8.602;2023-07-16T16:54:55;7.80;;;2.88;;
77051;SDS011;65980;44.898;8.602;2023-07-16T16:57:59;7.25;;;2.72;;
77051;SDS011;65980;44.898;8.602;2023-07-16T17:01:03;9.43;;;2.80;;
77051;SDS011;65980;44.898;8.602;2023-07-16T17:04:08;9.35;;;2.90;;
77051;SDS011;65980;44.898;8.602;2023-07-16T17:07:12;7.95;;;2.88;;
77051;SDS011;65980;44.898;8.602;2023-07-16T17:10:17;12.00;;;3.05;;
77051;SDS011;65980;44.898;8.602;2023-07-16T17:13:22;7.13;;;2.80;;
77051;SDS011;65980;44.898;8.602;2023-07-16T17:16:25;6.90;;;3.20;;
77051;SDS011;65980;44.898;8.602;2023-07-16T17:19:29;9.93;;;2.80;;
77051;SDS011;65980;44.898;8.602;2023-07-16T17:22:33;13.30;;;3.10;;
77051;SDS011;65980;44.898;8.602;2023-07-16T17:25:37;9.25;;;2.75;;
77051;SDS011;65980;44.898;8.602;2023-07-16T17:28:41;6.10;;;2.70;;
77051;SDS011;65980;44.898;8.602;2023-07-16T17:31:45;6.90;;;2.72;;
77051;SDS011;65980;44.898;8.602;2023-07-16T17:34:51;12.73;;;3.30;;
77051;SDS011;65980;44.898;8.602;2023-07-16T17:37:56;5.45;;;2.42;;
77051;SDS011;65980;44.898;8.602;2023-07-16T17:41:01;7.28;;;2.83;;
77051;SDS011;65980;44.898;8.602;2023-07-16T17:44:06;9.30;;;3.20;;
77051;SDS011;65980;44.898;8.602;2023-07-16T17:47:11;9.23;;;2.90;;
77051;SDS011;65980;44.898;8.602;2023-07-16T17:50:16;7.90;;;3.25;;
77051;SDS011;65980;44.898;8.602;2023-07-16T17:53:20;10.10;;;3.03;;
77051;SDS011;65980;44.898;8.602;2023-07-16T17:56:26;13.25;;;3.63;;
77051;SDS011;65980;44.898;8.602;2023-07-16T17:59:32;9.57;;;3.58;;
77051;SDS011;65980;44.898;8.602;2023-07-16T18:02:37;8.70;;;2.97;;
77051;SDS011;65980;44.898;8.602;2023-07-16T18:05:40;9.38;;;2.80;;
77051;SDS011;65980;44.898;8.602;2023-07-16T18:08:46;14.35;;;3.67;;
77051;SDS011;65980;44.898;8.602;2023-07-16T18:11:50;7.40;;;3.13;;
77051;SDS011;65980;44.898;8.602;2023-07-16T18:14:54;8.85;;;2.95;;
77051;SDS011;65980;44.898;8.602;2023-07-16T18:18:01;11.05;;;3.10;;
77051;SDS011;65980;44.898;8.602;2023-07-16T18:21:06;7.40;;;3.45;;
77051;SDS011;65980;44.898;8.602;2023-07-16T18:24:11;12.30;;;3.10;;
77051;SDS011;65980;44.898;8.602;2023-07-16T18:27:16;16.38;;;3.85;;
77051;SDS011;65980;44.898;8.602;2023-07-16T18:30:20;9.82;;;3.60;;
77051;SDS011;65980;44.898;8.602;2023-07-16T18:33:25;11.60;;;3.60;;
77051;SDS011;65980;44.898;8.602;2023-07-16T18:36:29;10.70;;;3.67;;